createdAt,value
2023-01-23T00:01:46.966Z,2.79
2023-01-23T00:04:32.513Z,2.73
2023-01-23T00:07:18.007Z,2.71
2023-01-23T00:10:03.741Z,2.76
2023-01-23T00:12:49.154Z,2.80
2023-01-23T00:15:34.530Z,2.80
2023-01-23T00:18:19.764Z,2.83
2023-01-23T00:21:11.033Z,2.79
2023-01-23T00:23:59.060Z,2.78
2023-01-23T00:26:44.608Z,2.78
2023-01-23T00:29:30.015Z,2.75
2023-01-23T00:32:15.548Z,2.73
2023-01-23T00:35:01.087Z,2.71
2023-01-23T00:37:46.486Z,2.71
2023-01-23T00:40:31.790Z,2.73
2023-01-23T00:43:17.322Z,2.68
2023-01-23T00:46:02.955Z,2.63
2023-01-23T00:48:48.329Z,2.66
2023-01-23T00:51:34.196Z,2.72
2023-01-23T00:54:21.220Z,2.70
2023-01-23T00:57:09.792Z,2.71
2023-01-23T00:59:54.947Z,2.63
2023-01-23T01:02:40.634Z,2.57
2023-01-23T01:05:27.491Z,2.59
2023-01-23T01:08:12.827Z,2.66
2023-01-23T01:10:58.313Z,2.72
2023-01-23T01:13:45.277Z,2.74
2023-01-23T01:16:30.607Z,2.72
2023-01-23T01:19:19.010Z,2.70
2023-01-23T01:22:04.061Z,2.73
2023-01-23T01:24:49.622Z,2.68
2023-01-23T01:27:35.089Z,2.68
2023-01-23T01:30:21.803Z,2.65
2023-01-23T01:33:08.042Z,2.65
2023-01-23T01:35:56.103Z,2.67
2023-01-23T01:38:41.482Z,2.68
2023-01-23T01:41:27.134Z,2.76
2023-01-23T01:44:21.504Z,2.74
2023-01-23T01:47:07.929Z,2.71
2023-01-23T01:49:58.984Z,2.74
2023-01-23T01:52:44.920Z,2.70
2023-01-23T01:55:30.671Z,2.70
2023-01-23T01:58:16.223Z,2.75
2023-01-23T02:01:01.552Z,2.72
2023-01-23T02:03:49.075Z,2.76
2023-01-23T02:06:34.465Z,2.81
2023-01-23T02:09:24.989Z,2.86
2023-01-23T02:12:10.322Z,2.85
2023-01-23T02:14:55.638Z,2.85
2023-01-23T02:17:41.796Z,2.85
2023-01-23T02:20:28.630Z,2.85
2023-01-23T02:23:45.205Z,2.91
2023-01-23T02:26:40.273Z,2.94
2023-01-23T02:29:26.999Z,2.95
2023-01-23T02:32:14.219Z,2.91
2023-01-23T02:35:04.539Z,2.92
2023-01-23T02:37:54.513Z,2.90
2023-01-23T02:40:42.533Z,2.87
2023-01-23T02:43:35.070Z,2.82
2023-01-23T02:46:21.865Z,2.80
2023-01-23T02:49:07.524Z,2.82
2023-01-23T02:51:54.085Z,2.83
2023-01-23T02:54:40.604Z,2.86
2023-01-23T02:57:26.174Z,2.93
2023-01-23T03:00:22.754Z,2.97
2023-01-23T03:03:09.256Z,2.96
2023-01-23T03:05:55.642Z,2.93
2023-01-23T03:08:47.342Z,2.96
2023-01-23T03:11:32.797Z,2.86
2023-01-23T03:14:21.905Z,2.80
2023-01-23T03:17:07.484Z,2.76
2023-01-23T03:19:57.482Z,2.73
2023-01-23T03:22:44.667Z,2.72
2023-01-23T03:25:29.897Z,2.67
2023-01-23T03:28:34.262Z,2.73
2023-01-23T03:31:19.517Z,2.79
2023-01-23T03:34:04.954Z,2.81
2023-01-23T03:36:51.729Z,2.82
2023-01-23T03:39:55.894Z,2.80
2023-01-23T03:42:41.409Z,2.79
2023-01-23T03:45:28.844Z,2.83
2023-01-23T03:48:14.663Z,2.78
2023-01-23T03:51:01.509Z,2.78
2023-01-23T03:53:49.398Z,2.77
2023-01-23T03:56:34.980Z,2.77
2023-01-23T03:59:20.013Z,2.78
2023-01-23T04:02:07.594Z,2.82
2023-01-23T04:04:53.059Z,2.84
2023-01-23T04:07:38.603Z,2.83
2023-01-23T04:10:24.129Z,2.80
2023-01-23T04:13:13.688Z,2.81
2023-01-23T04:16:01.043Z,2.90
2023-01-23T04:18:46.192Z,2.85
2023-01-23T04:21:31.689Z,2.79
2023-01-23T04:24:17.672Z,2.79
2023-01-23T04:27:02.796Z,2.85
2023-01-23T04:29:48.409Z,2.88
2023-01-23T04:32:33.693Z,2.81
2023-01-23T04:35:19.199Z,2.78
2023-01-23T04:38:04.658Z,2.76
2023-01-23T04:40:50.803Z,2.76
2023-01-23T04:43:36.669Z,2.74
2023-01-23T04:46:25.874Z,2.65
2023-01-23T04:49:16.789Z,2.55
2023-01-23T04:52:02.684Z,2.56
2023-01-23T04:54:51.085Z,2.60
2023-01-23T04:57:36.274Z,2.69
2023-01-23T05:00:31.404Z,2.72
2023-01-23T05:03:18.639Z,2.73
2023-01-23T05:06:06.623Z,2.77
2023-01-23T05:08:52.599Z,2.82
2023-01-23T05:11:43.756Z,2.83
2023-01-23T05:14:31.419Z,2.77
2023-01-23T05:17:16.791Z,2.73
2023-01-23T05:20:10.010Z,2.65
2023-01-23T05:22:58.463Z,2.61
2023-01-23T05:25:55.102Z,2.56
2023-01-23T05:28:41.300Z,2.57
2023-01-23T05:31:26.818Z,2.63
2023-01-23T05:34:32.676Z,2.68
2023-01-23T05:37:25.297Z,2.65
2023-01-23T05:40:13.899Z,2.73
2023-01-23T05:43:37.117Z,2.74
2023-01-23T05:46:45.873Z,2.65
2023-01-23T05:49:31.862Z,2.64
2023-01-23T05:52:18.267Z,2.62
2023-01-23T05:55:04.274Z,2.67
2023-01-23T05:57:51.133Z,2.68
2023-01-23T06:00:56.210Z,2.75
2023-01-23T06:04:00.270Z,2.76
2023-01-23T06:06:55.185Z,2.81
2023-01-23T06:09:42.539Z,2.79
2023-01-23T06:12:28.787Z,2.80
2023-01-23T06:15:14.072Z,2.82
2023-01-23T06:17:59.574Z,2.81
2023-01-23T06:20:45.634Z,2.76
2023-01-23T06:23:31.480Z,2.72
2023-01-23T06:26:18.491Z,2.74
2023-01-23T06:29:04.137Z,2.73
2023-01-23T06:31:49.495Z,2.73
2023-01-23T06:34:36.692Z,2.69
2023-01-23T06:37:23.561Z,2.64
2023-01-23T06:40:13.062Z,2.55
2023-01-23T06:43:00.183Z,2.55
2023-01-23T06:45:46.470Z,2.55
2023-01-23T06:48:31.840Z,2.51
2023-01-23T06:51:18.270Z,2.55
2023-01-23T06:54:05.854Z,2.63
2023-01-23T06:56:51.681Z,2.68
2023-01-23T06:59:38.277Z,2.65
2023-01-23T07:02:27.806Z,2.66
2023-01-23T07:05:13.778Z,2.69
2023-01-23T07:08:04.959Z,2.75
2023-01-23T07:10:51.256Z,2.71
2023-01-23T07:13:36.482Z,2.74
2023-01-23T07:16:22.807Z,2.76
2023-01-23T07:19:08.193Z,2.82
2023-01-23T07:21:56.297Z,2.87
2023-01-23T07:24:41.819Z,2.84
2023-01-23T07:27:27.591Z,2.85
2023-01-23T07:30:13.605Z,2.84
2023-01-23T07:32:59.187Z,2.86
2023-01-23T07:35:44.284Z,2.86
2023-01-23T07:38:29.468Z,2.94
2023-01-23T07:41:14.884Z,2.98
2023-01-23T07:44:00.211Z,2.90
2023-01-23T07:46:47.009Z,2.88
2023-01-23T07:49:32.227Z,2.96
2023-01-23T07:52:17.474Z,3.07
2023-01-23T07:55:03.627Z,3.13
2023-01-23T07:57:49.012Z,3.18
2023-01-23T08:00:34.417Z,3.20
2023-01-23T08:03:20.846Z,3.19
2023-01-23T08:06:06.813Z,3.17
2023-01-23T08:08:52.307Z,3.10
2023-01-23T08:11:37.443Z,3.07
2023-01-23T08:14:22.894Z,3.07
2023-01-23T08:17:07.964Z,3.01
2023-01-23T08:19:53.283Z,2.88
2023-01-23T08:22:40.786Z,2.82
2023-01-23T08:25:26.075Z,2.79
2023-01-23T08:28:11.251Z,2.73
2023-01-23T08:31:01.289Z,2.69
2023-01-23T08:33:47.091Z,2.64
2023-01-23T08:36:32.777Z,2.67
2023-01-23T08:39:19.991Z,2.68
2023-01-23T08:42:05.111Z,2.71
2023-01-23T08:44:50.393Z,2.63
2023-01-23T08:47:36.892Z,2.56
2023-01-23T08:50:22.873Z,2.48
2023-01-23T08:53:08.527Z,2.55
2023-01-23T08:55:53.969Z,2.64
2023-01-23T08:58:39.276Z,2.67
2023-01-23T09:01:26.691Z,2.70
2023-01-23T09:04:12.115Z,2.72
2023-01-23T09:06:57.341Z,2.78
2023-01-23T09:09:42.806Z,2.79
2023-01-23T09:12:28.157Z,2.76
2023-01-23T09:15:13.607Z,2.83
2023-01-23T09:17:58.773Z,2.92
2023-01-23T09:20:44.216Z,3.00
2023-01-23T09:23:29.270Z,3.05
2023-01-23T09:26:15.205Z,3.05
2023-01-23T09:29:01.501Z,3.10
2023-01-23T09:31:47.170Z,3.05
2023-01-23T09:34:32.334Z,3.03
2023-01-23T09:37:18.045Z,3.05
2023-01-23T09:40:03.622Z,3.12
2023-01-23T09:42:50.092Z,3.23
2023-01-23T09:45:38.118Z,3.25
2023-01-23T09:48:31.671Z,3.31
2023-01-23T09:51:22.393Z,3.35
2023-01-23T09:54:18.195Z,3.25
2023-01-23T09:57:13.766Z,3.25
2023-01-23T10:00:22.341Z,3.27
2023-01-23T10:03:13.183Z,3.26
2023-01-23T10:06:20.915Z,3.25
2023-01-23T10:09:17.424Z,3.28
2023-01-23T10:12:11.723Z,3.36
2023-01-23T10:15:05.882Z,3.57
2023-01-23T10:18:00.290Z,3.77
2023-01-23T10:21:07.015Z,3.82
2023-01-23T10:23:59.639Z,3.87
2023-01-23T10:26:47.641Z,3.88
2023-01-23T10:29:38.841Z,3.84
2023-01-23T10:32:26.750Z,3.82
2023-01-23T10:35:24.883Z,3.81
2023-01-23T10:38:20.853Z,3.88
2023-01-23T10:41:14.529Z,3.98
2023-01-23T10:44:00.517Z,4.00
2023-01-23T10:46:54.011Z,3.99
2023-01-23T10:49:45.339Z,3.84
2023-01-23T10:52:35.809Z,3.76
2023-01-23T10:55:21.622Z,3.77
2023-01-23T10:58:31.513Z,3.89
2023-01-23T11:01:34.497Z,3.82
2023-01-23T11:04:23.917Z,3.77
2023-01-23T11:07:22.989Z,3.78
2023-01-23T11:10:07.933Z,3.82
2023-01-23T11:12:55.390Z,3.86
2023-01-23T11:15:43.537Z,3.99
2023-01-23T11:18:33.063Z,3.72
2023-01-23T11:21:29.630Z,3.54
2023-01-23T11:24:39.847Z,3.41
2023-01-23T11:27:31.068Z,3.34
2023-01-23T11:30:38.632Z,3.58
2023-01-23T11:33:26.819Z,3.51
2023-01-23T11:36:29.915Z,3.41
2023-01-23T11:39:41.084Z,3.29
2023-01-23T11:42:28.726Z,3.51
2023-01-23T11:45:35.833Z,3.65
2023-01-23T11:48:24.572Z,3.82
2023-01-23T11:51:18.778Z,3.76
2023-01-23T11:54:22.939Z,3.79
2023-01-23T11:57:12.722Z,4.09
2023-01-23T12:00:07.374Z,4.14
2023-01-23T12:03:05.995Z,3.84
2023-01-23T12:06:20.340Z,3.80
2023-01-23T12:09:20.162Z,3.99
2023-01-23T12:12:27.779Z,3.82
2023-01-23T12:15:26.432Z,4.10
2023-01-23T12:18:46.373Z,4.09
2023-01-23T12:21:49.764Z,4.10
2023-01-23T12:24:58.371Z,4.02
2023-01-23T12:27:47.323Z,3.88
2023-01-23T12:31:00.580Z,3.80
2023-01-23T12:34:09.079Z,3.73
2023-01-23T12:37:46.238Z,3.65
2023-01-23T12:40:37.679Z,3.70
2023-01-23T12:43:50.460Z,3.76
2023-01-23T12:46:50.868Z,3.76
2023-01-23T12:49:42.439Z,3.72
2023-01-23T12:52:35.500Z,3.65
2023-01-23T12:55:30.704Z,3.58
2023-01-23T12:58:19.005Z,3.62
2023-01-23T13:01:20.427Z,3.75
2023-01-23T13:04:17.479Z,3.75
2023-01-23T13:07:14.126Z,3.71
2023-01-23T13:10:53.873Z,3.65
2023-01-23T13:13:40.449Z,3.66
2023-01-23T13:16:30.303Z,3.67
2023-01-23T13:19:42.227Z,3.68
2023-01-23T13:22:32.679Z,3.72
2023-01-23T13:25:19.827Z,3.70
2023-01-23T13:28:46.172Z,3.79
2023-01-23T13:31:47.149Z,3.92
2023-01-23T13:34:36.023Z,3.95
2023-01-23T13:37:30.828Z,3.92
2023-01-23T13:40:20.060Z,3.85
2023-01-23T13:43:46.771Z,3.86
2023-01-23T13:46:35.184Z,3.79
2023-01-23T14:21:57.655Z,3.51
2023-01-23T14:24:46.343Z,3.50
2023-01-23T14:27:51.331Z,3.54
2023-01-23T14:30:37.704Z,3.43
2023-01-23T14:33:23.571Z,3.50
2023-01-23T14:36:19.612Z,3.57
2023-01-23T14:40:09.730Z,3.49
2023-01-23T14:43:02.123Z,3.47
2023-01-23T14:45:49.637Z,3.46
2023-01-23T14:48:41.579Z,3.44
2023-01-23T14:51:27.723Z,3.47
2023-01-23T14:54:22.963Z,3.56
2023-01-23T14:57:10.247Z,3.55
2023-01-23T14:59:57.595Z,3.46
2023-01-23T15:02:45.748Z,3.45
2023-01-23T15:05:32.831Z,3.37
2023-01-23T15:08:30.617Z,3.33
2023-01-23T15:11:24.294Z,3.33
2023-01-23T15:14:42.140Z,3.40
2023-01-23T15:17:28.282Z,3.35
2023-01-23T15:20:41.598Z,3.32
2023-01-23T15:23:33.621Z,3.28
2023-01-23T15:26:24.490Z,3.24
2023-01-23T15:29:10.022Z,3.30
2023-01-23T15:31:57.114Z,3.35
2023-01-23T15:34:52.230Z,3.37
2023-01-23T15:37:37.583Z,3.41
2023-01-23T15:40:27.566Z,3.42
2023-01-23T15:43:19.008Z,3.29
2023-01-23T15:46:04.373Z,3.25
2023-01-23T15:48:49.455Z,3.24
2023-01-23T15:51:36.355Z,3.20
2023-01-23T15:54:36.206Z,3.21
2023-01-23T15:57:21.401Z,3.34
2023-01-23T16:00:24.759Z,3.34
2023-01-23T16:03:10.783Z,3.30
2023-01-23T16:05:56.266Z,3.22
2023-01-23T16:08:41.353Z,3.20
2023-01-23T16:11:32.616Z,3.16
2023-01-23T16:14:19.277Z,3.19
2023-01-23T16:17:15.987Z,3.18
2023-01-23T16:20:02.511Z,3.16
2023-01-23T16:22:54.570Z,3.19
2023-01-23T16:25:44.569Z,3.23
2023-01-23T16:28:32.466Z,3.19
2023-01-23T16:31:18.033Z,3.19
2023-01-23T16:34:03.662Z,3.16
2023-01-23T16:36:57.892Z,3.20
2023-01-23T16:39:45.192Z,3.18
2023-01-23T16:42:30.876Z,3.15
2023-01-23T16:45:19.315Z,3.18
2023-01-23T16:48:18.224Z,3.23
2023-01-23T16:51:21.869Z,3.22
2023-01-23T16:54:18.840Z,3.27
2023-01-23T16:57:04.480Z,3.32
2023-01-23T16:59:50.445Z,3.35
2023-01-23T17:02:35.857Z,3.35
2023-01-23T17:05:21.670Z,3.36
2023-01-23T17:08:18.313Z,3.41
2023-01-23T17:11:04.927Z,3.41
2023-01-23T17:13:59.401Z,3.35
2023-01-23T17:16:45.494Z,3.28
2023-01-23T17:19:33.928Z,3.19
2023-01-23T17:22:26.058Z,3.20
2023-01-23T17:25:20.907Z,3.22
2023-01-23T17:28:12.764Z,3.24
2023-01-23T17:31:00.645Z,3.26
2023-01-23T17:33:46.249Z,3.13
2023-01-23T17:36:32.334Z,3.03
2023-01-23T17:39:17.550Z,3.04
2023-01-23T17:42:03.192Z,3.04
2023-01-23T17:44:48.836Z,3.02
2023-01-23T17:47:35.029Z,3.05
2023-01-23T17:50:25.943Z,3.05
2023-01-23T17:53:15.845Z,2.98
2023-01-23T17:56:01.148Z,3.01
2023-01-23T17:58:46.380Z,3.05
2023-01-23T18:01:31.687Z,3.03
2023-01-23T18:04:20.518Z,3.11
2023-01-23T18:07:10.715Z,3.10
2023-01-23T18:09:56.282Z,3.11
2023-01-23T18:12:51.841Z,3.10
2023-01-23T18:15:40.813Z,3.08
2023-01-23T18:18:31.933Z,3.14
2023-01-23T18:21:18.063Z,3.12
2023-01-23T18:24:03.997Z,3.07
2023-01-23T18:27:32.821Z,3.02
2023-01-23T18:30:38.294Z,2.93
2023-01-23T18:33:41.285Z,2.94
2023-01-23T18:36:51.230Z,2.92
2023-01-23T18:39:49.539Z,2.88
2023-01-23T18:42:41.797Z,2.90
2023-01-23T18:45:28.013Z,2.96
2023-01-23T18:48:25.132Z,2.86
2023-01-23T18:51:19.966Z,2.94
2023-01-23T18:54:30.006Z,2.91
2023-01-23T18:57:28.112Z,2.88
2023-01-23T19:00:31.477Z,2.86
2023-01-23T19:03:18.168Z,2.99
2023-01-23T19:06:11.542Z,3.05
2023-01-23T19:08:57.434Z,3.03
2023-01-23T19:12:07.605Z,3.02
2023-01-23T19:15:04.892Z,3.06
2023-01-23T19:18:39.462Z,3.07
2023-01-23T19:21:27.554Z,3.07
2023-01-23T19:24:17.929Z,2.97
2023-01-23T19:27:03.493Z,3.01
2023-01-23T19:29:49.096Z,3.01
2023-01-23T19:32:35.426Z,3.04
2023-01-23T19:35:21.839Z,3.03
2023-01-23T19:38:10.059Z,3.02
2023-01-23T19:40:55.637Z,2.96
2023-01-23T19:43:40.773Z,2.91
2023-01-23T19:46:29.805Z,2.91
2023-01-23T19:49:15.067Z,2.90
2023-01-23T19:52:00.326Z,2.83
2023-01-23T19:54:45.756Z,2.84
2023-01-23T19:57:31.212Z,2.82
2023-01-23T20:00:17.467Z,2.81
2023-01-23T20:03:04.847Z,2.80
2023-01-23T20:05:50.374Z,2.86
2023-01-23T20:08:35.758Z,2.84
2023-01-23T20:11:21.539Z,2.88
2023-01-23T20:14:07.064Z,2.90
2023-01-23T20:16:52.250Z,2.93
2023-01-23T20:19:38.659Z,2.98
2023-01-23T20:22:23.925Z,3.02
2023-01-23T20:25:16.309Z,3.06
2023-01-23T20:28:01.355Z,3.12
2023-01-23T20:30:46.505Z,3.14
2023-01-23T20:33:31.985Z,3.18
2023-01-23T20:36:17.515Z,3.21
2023-01-23T20:39:04.707Z,3.17
2023-01-23T20:41:50.087Z,3.15
2023-01-23T20:44:35.262Z,3.13
2023-01-23T20:47:20.804Z,3.07
2023-01-23T20:50:06.412Z,2.95
2023-01-23T20:53:10.516Z,2.92
2023-01-23T20:56:16.421Z,2.94
2023-01-23T20:59:23.974Z,2.91
2023-01-23T21:02:23.067Z,2.88
2023-01-23T21:05:08.478Z,2.76
2023-01-23T21:07:53.670Z,2.76
2023-01-23T21:10:39.001Z,2.68
2023-01-23T21:13:24.462Z,2.68
2023-01-23T21:16:15.476Z,2.68
2023-01-23T21:19:01.506Z,2.66
2023-01-23T21:21:46.953Z,2.65
2023-01-23T21:24:36.393Z,2.67
2023-01-23T21:27:23.065Z,2.63
2023-01-23T21:30:10.658Z,2.64
2023-01-23T21:32:55.986Z,2.66
2023-01-23T21:35:41.110Z,2.65
2023-01-23T21:38:26.315Z,2.60
2023-01-23T21:41:11.933Z,2.58
2023-01-23T21:43:57.105Z,2.63
2023-01-23T21:46:42.823Z,2.64
2023-01-23T21:49:27.950Z,2.59
2023-01-23T21:52:13.532Z,2.56
2023-01-23T21:54:58.894Z,2.52
2023-01-23T21:57:44.232Z,2.51
2023-01-23T22:00:48.039Z,2.47
2023-01-23T22:03:36.255Z,2.49
2023-01-23T22:06:21.873Z,2.59
2023-01-23T22:09:15.620Z,2.59
2023-01-23T22:12:01.123Z,2.57
2023-01-23T22:14:46.554Z,2.61
2023-01-23T22:17:31.895Z,2.63
2023-01-23T22:20:17.631Z,2.56
2023-01-23T22:23:02.918Z,2.50
2023-01-23T22:25:56.072Z,2.54
2023-01-23T22:28:41.423Z,2.51
2023-01-23T22:31:26.838Z,2.52
2023-01-23T22:34:12.194Z,2.51
2023-01-23T22:36:57.351Z,2.49
2023-01-23T22:39:43.034Z,2.47
2023-01-23T22:42:28.327Z,2.43
2023-01-23T22:45:14.116Z,2.32
2023-01-23T22:47:59.794Z,2.25
2023-01-23T22:50:45.604Z,2.25
2023-01-23T22:53:32.247Z,2.25
2023-01-23T22:56:17.389Z,2.21
2023-01-23T22:59:03.154Z,2.19
2023-01-23T23:01:48.500Z,2.12
2023-01-23T23:04:33.841Z,2.13
2023-01-23T23:07:19.004Z,2.10
2023-01-23T23:10:06.061Z,2.09
2023-01-23T23:12:51.036Z,2.08
2023-01-23T23:15:36.523Z,2.01
2023-01-23T23:18:22.182Z,2.00
2023-01-23T23:21:10.168Z,2.02
2023-01-23T23:23:59.773Z,1.98
2023-01-23T23:26:45.143Z,1.95
2023-01-23T23:29:30.525Z,1.90
2023-01-23T23:32:15.968Z,1.88
2023-01-23T23:35:01.334Z,1.90
2023-01-23T23:37:46.475Z,1.93
2023-01-23T23:40:31.711Z,1.99
2023-01-23T23:43:17.080Z,2.01
2023-01-23T23:46:05.157Z,2.05
2023-01-23T23:48:50.647Z,2.07
2023-01-23T23:51:35.809Z,2.09
2023-01-23T23:54:21.391Z,2.12
2023-01-23T23:57:06.832Z,2.15
2023-01-23T23:59:52.128Z,2.17
